sim
Sign-in with your pilot id or email,
or register
Callsign
Passwort

Schedule Details

Flight Number: EWG1783 (1)
Departure: Palma de Mallorca Airport (LEPA) at 08:55
Arrival: Munich Airport (EDDM) at 11:00
Route: Eurowings Passenger Schedule. Enter filed route here before submitting Pirep.

Weather Information
Getting current METAR information for LEPA 211200Z 22011KT 200V270 9999 FEW020TCU BKN022 28/20 Q1015 NOSIG
Getting current METAR information for EDDM 211220Z 03005KT 330V080 CAVOK 22/12 Q1016 NOSIG

Schedule Frequency

Route Map